createdAt,value
2018-11-03T00:01:35.245Z,58.17
2018-11-03T00:04:04.606Z,64.30
2018-11-03T00:06:33.718Z,64.13
2018-11-03T00:09:03.763Z,74.40
2018-11-03T00:11:33.038Z,68.70
2018-11-03T00:14:02.423Z,60.73
2018-11-03T00:16:31.853Z,57.70
2018-11-03T00:19:00.949Z,62.23
2018-11-03T00:21:30.123Z,55.67
2018-11-03T00:23:59.706Z,55.33
2018-11-03T00:26:29.020Z,46.10
2018-11-03T00:28:58.219Z,46.50
2018-11-03T00:31:27.514Z,43.30
2018-11-03T00:33:56.735Z,52.27
2018-11-03T00:36:26.539Z,50.53
2018-11-03T00:38:55.850Z,52.37
2018-11-03T00:41:25.041Z,53.07
2018-11-03T00:43:54.242Z,53.63
2018-11-03T00:46:23.822Z,51.30
2018-11-03T00:48:52.939Z,51.03
2018-11-03T00:51:22.049Z,51.97
2018-11-03T00:53:51.515Z,55.70
2018-11-03T00:56:21.029Z,53.30
2018-11-03T00:58:50.256Z,50.00
2018-11-03T01:01:19.729Z,53.40
2018-11-03T01:03:48.935Z,52.77
2018-11-03T01:06:18.158Z,52.27
2018-11-03T01:08:47.597Z,49.30
2018-11-03T01:11:16.930Z,55.60
2018-11-03T01:13:46.161Z,50.47
2018-11-03T01:16:15.689Z,47.70
2018-11-03T01:18:44.848Z,49.10
2018-11-03T01:21:13.954Z,49.53
2018-11-03T01:23:43.391Z,43.93
2018-11-03T01:26:12.657Z,47.50
2018-11-03T01:28:41.925Z,53.37
2018-11-03T01:31:11.410Z,44.93
2018-11-03T01:33:40.665Z,55.07
2018-11-03T01:36:10.047Z,49.80
2018-11-03T01:38:39.774Z,44.67
2018-11-03T01:41:09.021Z,51.77
2018-11-03T01:43:38.422Z,49.73
2018-11-03T01:46:07.738Z,49.77
2018-11-03T01:48:37.255Z,42.67
2018-11-03T01:51:06.576Z,44.83
2018-11-03T01:53:35.825Z,41.37
2018-11-03T01:56:05.099Z,41.83
2018-11-03T01:58:34.549Z,49.83
2018-11-03T02:01:03.937Z,43.40
2018-11-03T02:03:33.274Z,45.50
2018-11-03T02:06:02.415Z,43.33
2018-11-03T02:08:31.801Z,48.40
2018-11-03T02:11:00.949Z,48.03
2018-11-03T02:13:30.067Z,46.30
2018-11-03T02:15:59.446Z,41.73
2018-11-03T02:18:28.678Z,47.20
2018-11-03T02:20:57.973Z,44.33
2018-11-03T02:23:27.412Z,45.13
2018-11-03T02:25:56.673Z,46.13
2018-11-03T02:28:25.878Z,44.73
2018-11-03T02:30:55.031Z,42.63
2018-11-03T02:33:24.075Z,42.40
2018-11-03T02:35:53.455Z,40.70
2018-11-03T02:38:23.019Z,42.43
2018-11-03T02:40:52.367Z,42.13
2018-11-03T02:43:21.593Z,42.80
2018-11-03T02:45:51.043Z,51.87
2018-11-03T02:48:21.085Z,42.70
2018-11-03T02:50:50.583Z,49.90
2018-11-03T02:53:19.904Z,43.73
2018-11-03T02:55:49.088Z,42.73
2018-11-03T02:58:18.599Z,39.73
2018-11-03T03:00:47.822Z,44.43
2018-11-03T03:03:17.091Z,37.07
2018-11-03T03:05:46.450Z,40.90
2018-11-03T03:08:15.614Z,42.60
2018-11-03T03:10:45.110Z,39.37
2018-11-03T03:13:14.509Z,37.93
2018-11-03T03:15:43.717Z,34.27
2018-11-03T03:18:12.865Z,31.63
2018-11-03T03:20:42.697Z,43.07
2018-11-03T03:23:11.823Z,42.13
2018-11-03T03:25:41.196Z,37.83
2018-11-03T03:28:10.660Z,39.17
2018-11-03T03:30:39.891Z,39.67
2018-11-03T03:33:09.029Z,35.87
2018-11-03T03:35:38.580Z,38.20
2018-11-03T03:38:07.693Z,42.50
2018-11-03T03:40:36.926Z,41.30
2018-11-03T03:43:06.346Z,42.00
2018-11-03T03:45:35.713Z,41.93
2018-11-03T03:48:04.913Z,40.57
2018-11-03T03:50:34.450Z,42.87
2018-11-03T03:53:03.757Z,41.20
2018-11-03T03:55:32.910Z,49.17
2018-11-03T03:58:02.124Z,46.50
2018-11-03T04:00:31.430Z,40.87
2018-11-03T04:03:00.785Z,38.73
2018-11-03T04:05:30.156Z,36.83
2018-11-03T04:07:59.308Z,40.27
2018-11-03T04:10:28.533Z,40.07
2018-11-03T04:12:58.213Z,39.83
2018-11-03T04:15:27.454Z,39.40
2018-11-03T04:17:56.686Z,43.97
2018-11-03T04:20:26.152Z,39.40
2018-11-03T04:22:55.383Z,37.63
2018-11-03T04:25:24.468Z,41.00
2018-11-03T04:27:53.925Z,36.37
2018-11-03T04:30:23.305Z,35.90
2018-11-03T04:32:52.694Z,38.33
2018-11-03T04:35:21.930Z,39.60
2018-11-03T04:37:51.099Z,40.47
2018-11-03T04:40:20.380Z,48.37
2018-11-03T04:42:49.687Z,43.53
2018-11-03T04:45:19.279Z,41.50
2018-11-03T04:47:48.467Z,38.83
2018-11-03T04:50:17.951Z,39.87
2018-11-03T04:52:47.199Z,42.13
2018-11-03T04:55:16.539Z,43.93
2018-11-03T04:57:46.215Z,40.07
2018-11-03T05:00:15.606Z,40.40
2018-11-03T05:02:44.906Z,38.67
2018-11-03T05:05:14.358Z,45.93
2018-11-03T05:07:43.627Z,42.50
2018-11-03T05:10:12.837Z,40.97
2018-11-03T05:12:42.137Z,46.60
2018-11-03T05:15:11.404Z,38.57
2018-11-03T05:17:40.505Z,37.10
2018-11-03T05:20:10.125Z,38.00
2018-11-03T05:22:39.595Z,35.73
2018-11-03T05:25:08.892Z,41.37
2018-11-03T05:27:41.567Z,43.60
2018-11-03T05:30:10.854Z,36.60
2018-11-03T05:32:40.057Z,42.80
2018-11-03T05:35:09.417Z,40.23
2018-11-03T05:37:38.588Z,40.17
2018-11-03T05:40:07.787Z,44.60
2018-11-03T05:42:37.429Z,42.23
2018-11-03T05:45:06.782Z,46.20
2018-11-03T05:47:36.084Z,43.90
2018-11-03T05:50:06.220Z,47.77
2018-11-03T05:52:35.467Z,44.47
2018-11-03T05:55:04.779Z,49.53
2018-11-03T05:57:34.130Z,42.93
2018-11-03T06:00:03.325Z,55.00
2018-11-03T06:02:32.598Z,50.30
2018-11-03T06:05:01.934Z,41.17
2018-11-03T06:07:31.078Z,43.77
2018-11-03T06:10:00.171Z,45.73
2018-11-03T06:12:29.498Z,45.87
2018-11-03T06:14:58.779Z,41.80
2018-11-03T06:17:28.173Z,43.60
2018-11-03T06:19:57.355Z,35.97
2018-11-03T06:22:26.645Z,38.17
2018-11-03T06:24:56.067Z,35.17
2018-11-03T06:27:25.927Z,36.13
2018-11-03T06:29:55.209Z,40.77
2018-11-03T06:32:24.434Z,37.97
2018-11-03T06:34:53.670Z,32.00
2018-11-03T06:37:23.274Z,33.67
2018-11-03T06:39:52.531Z,34.87
2018-11-03T06:42:22.075Z,34.53
2018-11-03T06:44:51.478Z,32.07
2018-11-03T06:47:20.796Z,31.53
2018-11-03T06:49:50.474Z,33.10
2018-11-03T06:52:19.734Z,37.63
2018-11-03T06:54:49.177Z,31.50
2018-11-03T06:57:18.582Z,27.60
2018-11-03T06:59:47.863Z,26.20
2018-11-03T07:02:17.773Z,29.63
2018-11-03T07:04:47.109Z,24.40
2018-11-03T07:07:16.382Z,33.87
2018-11-03T07:09:45.998Z,33.23
2018-11-03T07:12:15.502Z,32.57
2018-11-03T07:14:44.888Z,33.23
2018-11-03T07:17:14.049Z,35.97
2018-11-03T07:19:43.313Z,44.77
2018-11-03T07:22:12.746Z,28.27
2018-11-03T07:24:42.319Z,28.50
2018-11-03T07:27:11.610Z,30.63
2018-11-03T07:29:41.080Z,33.17
2018-11-03T07:32:10.602Z,27.00
2018-11-03T07:34:39.885Z,32.87
2018-11-03T07:37:09.190Z,32.40
2018-11-03T07:39:38.362Z,29.73
2018-11-03T07:42:07.913Z,30.73
2018-11-03T07:44:37.516Z,29.40
2018-11-03T07:47:06.896Z,32.87
2018-11-03T07:49:36.255Z,29.27
2018-11-03T07:52:05.521Z,33.47
2018-11-03T07:54:35.307Z,29.43
2018-11-03T07:57:04.850Z,34.90
2018-11-03T07:59:34.127Z,35.57
2018-11-03T08:02:04.680Z,39.40
2018-11-03T08:04:34.077Z,29.57
2018-11-03T08:07:03.294Z,32.13
2018-11-03T08:09:32.885Z,33.37
2018-11-03T08:12:02.285Z,37.10
2018-11-03T08:14:31.534Z,35.80
2018-11-03T08:17:01.579Z,32.33
2018-11-03T08:19:30.966Z,37.93
2018-11-03T08:22:00.130Z,35.67
2018-11-03T08:24:29.434Z,37.20
2018-11-03T08:26:58.553Z,36.50
2018-11-03T08:29:27.832Z,38.73
2018-11-03T08:31:57.133Z,34.83
2018-11-03T08:34:26.561Z,48.47
2018-11-03T08:36:55.863Z,34.57
2018-11-03T08:39:25.230Z,35.30
2018-11-03T08:41:54.537Z,49.87
2018-11-03T08:44:23.509Z,70.97
2018-11-03T08:46:53.067Z,49.77
2018-11-03T08:49:22.445Z,38.40
2018-11-03T08:51:51.779Z,40.10
2018-11-03T08:54:21.078Z,35.73
2018-11-03T08:56:50.358Z,49.33
2018-11-03T08:59:19.718Z,33.13
2018-11-03T09:01:49.113Z,29.97
2018-11-03T09:04:18.351Z,33.70
2018-11-03T09:06:47.463Z,32.00
2018-11-03T09:09:16.950Z,31.83
2018-11-03T09:11:46.122Z,29.53
2018-11-03T09:14:15.278Z,29.60
2018-11-03T09:16:44.315Z,29.23
2018-11-03T09:19:13.737Z,42.83
2018-11-03T09:21:43.041Z,43.83
2018-11-03T09:24:12.396Z,38.57
2018-11-03T09:26:41.315Z,68.40
2018-11-03T09:29:10.541Z,41.93
2018-11-03T09:31:39.999Z,37.70
2018-11-03T09:34:09.514Z,40.93
2018-11-03T09:36:38.710Z,37.67
2018-11-03T09:39:10.041Z,31.73
2018-11-03T09:41:39.643Z,28.83
2018-11-03T09:44:09.011Z,32.40
2018-11-03T09:46:38.583Z,30.23
2018-11-03T09:49:08.081Z,26.30
2018-11-03T09:51:37.285Z,31.20
2018-11-03T09:54:06.718Z,33.73
2018-11-03T09:56:35.906Z,39.53
2018-11-03T09:59:05.510Z,104.43
2018-11-03T10:01:35.038Z,58.60
2018-11-03T10:04:04.438Z,35.10
2018-11-03T10:06:33.748Z,40.70
2018-11-03T10:09:03.347Z,31.50
2018-11-03T10:11:32.591Z,27.47
2018-11-03T10:14:01.922Z,26.30
2018-11-03T10:16:31.173Z,44.53
2018-11-03T10:19:00.333Z,25.63
2018-11-03T10:21:29.551Z,23.43
2018-11-03T10:23:59.060Z,30.13
2018-11-03T10:26:28.341Z,26.30
2018-11-03T10:28:57.717Z,31.47
2018-11-03T10:31:27.179Z,69.60
2018-11-03T10:33:56.322Z,29.40
2018-11-03T10:36:25.690Z,26.97
2018-11-03T10:38:54.999Z,25.20
2018-11-03T10:41:26.726Z,28.50
2018-11-03T10:43:56.702Z,30.87
2018-11-03T10:46:25.863Z,35.90
2018-11-03T10:48:55.927Z,26.97
2018-11-03T10:51:25.295Z,27.20
2018-11-03T10:53:54.716Z,31.17
2018-11-03T10:56:24.126Z,24.20
2018-11-03T10:58:54.778Z,26.63
2018-11-03T11:01:29.547Z,26.30
2018-11-03T11:04:04.277Z,21.40
2018-11-03T11:06:38.466Z,27.20
2018-11-03T11:09:13.291Z,27.80
2018-11-03T11:11:47.764Z,42.23
2018-11-03T11:14:17.754Z,19.40
2018-11-03T11:16:47.137Z,17.33
2018-11-03T11:19:16.452Z,19.47
2018-11-03T11:21:46.981Z,18.90
2018-11-03T11:24:16.526Z,21.73
2018-11-03T11:26:45.779Z,17.20
2018-11-03T11:29:15.152Z,16.63
2018-11-03T11:31:44.502Z,15.07
2018-11-03T11:34:13.956Z,14.93
2018-11-03T11:36:43.400Z,14.03
2018-11-03T11:39:12.722Z,14.53
2018-11-03T11:41:42.109Z,14.23
2018-11-03T11:44:11.595Z,15.23
2018-11-03T11:46:40.893Z,11.90
2018-11-03T11:49:10.119Z,13.80
2018-11-03T11:51:39.403Z,12.77
2018-11-03T11:54:09.314Z,15.40
2018-11-03T11:56:38.636Z,12.43
2018-11-03T11:59:07.951Z,21.77
2018-11-03T12:01:37.275Z,18.87
2018-11-03T12:04:06.830Z,17.27
2018-11-03T12:06:36.040Z,17.13
2018-11-03T12:09:06.478Z,12.57
2018-11-03T12:11:35.742Z,13.70
2018-11-03T12:14:05.065Z,18.73
2018-11-03T12:16:34.361Z,29.40
2018-11-03T12:19:03.594Z,13.87
2018-11-03T12:21:32.826Z,17.00
2018-11-03T12:24:01.941Z,10.27
2018-11-03T12:26:31.449Z,15.23
2018-11-03T12:29:00.727Z,10.20
2018-11-03T12:31:30.014Z,9.80
2018-11-03T12:33:59.626Z,9.33
2018-11-03T12:36:28.995Z,14.03
2018-11-03T12:38:58.226Z,12.30
2018-11-03T12:41:27.753Z,16.53
2018-11-03T12:43:57.099Z,12.37
2018-11-03T12:46:26.179Z,10.67
2018-11-03T12:48:55.592Z,13.63
2018-11-03T12:51:25.105Z,10.67
2018-11-03T12:53:54.425Z,13.13
2018-11-03T12:56:23.993Z,16.47
2018-11-03T12:58:53.098Z,11.30
2018-11-03T13:01:22.207Z,12.57
2018-11-03T13:03:51.670Z,47.53
2018-11-03T13:06:20.933Z,65.80
2018-11-03T13:08:50.118Z,10.60
2018-11-03T13:11:19.353Z,11.73
2018-11-03T13:13:48.610Z,13.73
2018-11-03T13:16:17.894Z,24.43
2018-11-03T13:18:47.198Z,9.73
2018-11-03T13:21:16.421Z,13.27
2018-11-03T13:23:47.281Z,14.33
2018-11-03T13:26:16.371Z,10.73
2018-11-03T13:28:49.110Z,15.47
2018-11-03T13:31:18.479Z,60.33
2018-11-03T13:33:47.671Z,12.37
2018-11-03T13:36:17.216Z,7.70
2018-11-03T13:38:46.366Z,19.50
2018-11-03T13:41:15.496Z,10.77
2018-11-03T13:43:45.157Z,8.43
2018-11-03T13:46:14.534Z,17.90
2018-11-03T13:48:43.759Z,104.27
2018-11-03T13:51:13.123Z,28.17
2018-11-03T13:53:42.315Z,10.33
2018-11-03T13:56:11.601Z,21.20
2018-11-03T13:58:40.968Z,26.80
2018-11-03T14:01:10.070Z,12.90
2018-11-03T14:03:39.255Z,40.47
2018-11-03T14:06:08.793Z,26.23
2018-11-03T14:08:38.066Z,116.10
2018-11-03T14:11:07.186Z,86.40
2018-11-03T14:13:36.708Z,38.23
2018-11-03T14:16:07.795Z,42.83
2018-11-03T14:18:37.278Z,22.97
2018-11-03T14:21:06.526Z,57.60
2018-11-03T14:23:35.814Z,91.50
2018-11-03T14:26:05.542Z,32.47
2018-11-03T14:28:34.642Z,27.70
2018-11-03T14:31:03.922Z,63.10
2018-11-03T14:33:33.291Z,17.07
2018-11-03T14:36:02.677Z,13.37
2018-11-03T14:38:32.219Z,28.73
2018-11-03T14:41:01.603Z,35.33
2018-11-03T14:43:30.842Z,72.83
2018-11-03T14:46:00.185Z,48.03
2018-11-03T14:48:29.844Z,61.77
2018-11-03T14:50:59.250Z,57.27
2018-11-03T14:53:28.588Z,25.03
2018-11-03T14:55:58.083Z,106.73
2018-11-03T14:58:27.459Z,203.87
2018-11-03T15:00:56.847Z,79.87
2018-11-03T15:03:26.206Z,80.93
2018-11-03T15:05:55.378Z,90.97
2018-11-03T15:08:24.597Z,60.43
2018-11-03T15:10:54.284Z,238.87
2018-11-03T15:13:23.687Z,131.07
2018-11-03T15:15:53.066Z,76.83
2018-11-03T15:18:22.299Z,85.17
2018-11-03T15:20:51.470Z,63.23
2018-11-03T15:23:20.578Z,63.43
2018-11-03T15:25:50.082Z,92.30
2018-11-03T15:28:19.166Z,79.47
2018-11-03T15:30:48.442Z,99.60
2018-11-03T15:33:17.982Z,87.93
2018-11-03T15:35:47.290Z,83.03
2018-11-03T15:38:16.455Z,72.40
2018-11-03T15:40:45.702Z,65.30
2018-11-03T15:43:15.774Z,107.90
2018-11-03T15:45:44.898Z,131.23
2018-11-03T15:48:14.351Z,144.40
2018-11-03T15:50:48.693Z,152.37
2018-11-03T15:53:18.154Z,159.00
2018-11-03T15:55:47.391Z,174.03
2018-11-03T15:58:16.700Z,157.27
2018-11-03T16:00:46.093Z,173.07
2018-11-03T16:03:15.696Z,163.40
2018-11-03T16:05:44.801Z,128.97
2018-11-03T16:08:14.231Z,145.90
2018-11-03T16:10:43.512Z,151.93
2018-11-03T16:13:12.645Z,161.53
2018-11-03T16:15:41.995Z,168.93
2018-11-03T16:18:11.346Z,179.30
2018-11-03T16:20:40.690Z,167.40
2018-11-03T16:23:10.185Z,161.10
2018-11-03T16:25:39.472Z,167.87
2018-11-03T16:28:08.625Z,181.00
2018-11-03T16:30:38.442Z,185.70
2018-11-03T16:33:07.927Z,237.17
2018-11-03T16:39:33.892Z,270.87
2018-11-03T16:42:02.847Z,225.87
2018-11-03T16:44:36.871Z,204.57
2018-11-03T16:47:06.696Z,153.97
2018-11-03T16:49:38.240Z,157.90
2018-11-03T16:52:18.185Z,135.87
2018-11-03T16:54:47.848Z,118.20
2018-11-03T16:57:19.563Z,119.00
2018-11-03T16:59:49.070Z,102.97
2018-11-03T17:02:18.762Z,81.13
2018-11-03T17:04:50.489Z,69.83
2018-11-03T17:07:19.894Z,78.73
2018-11-03T17:09:49.018Z,67.90
2018-11-03T17:12:18.932Z,79.83
2018-11-03T17:14:54.001Z,58.57
2018-11-03T17:17:23.378Z,73.27
2018-11-03T17:19:53.286Z,95.97
2018-11-03T17:22:22.538Z,155.17
2018-11-03T17:24:53.262Z,151.60
2018-11-03T17:27:22.940Z,137.97
2018-11-03T17:29:52.155Z,108.93
2018-11-03T17:32:21.437Z,100.33
2018-11-03T17:34:50.990Z,76.53
2018-11-03T17:37:21.197Z,63.60
2018-11-03T17:39:50.471Z,52.60
2018-11-03T17:42:19.793Z,50.53
2018-11-03T17:44:49.030Z,44.27
2018-11-03T17:47:18.323Z,48.83
2018-11-03T17:49:47.874Z,53.60
2018-11-03T17:52:17.470Z,52.83
2018-11-03T17:54:46.672Z,50.30
2018-11-03T17:57:16.155Z,47.40
2018-11-03T17:59:45.476Z,49.00
2018-11-03T18:02:14.670Z,58.70
2018-11-03T18:04:44.033Z,55.77
2018-11-03T18:07:13.304Z,51.47
2018-11-03T18:09:42.493Z,52.00
2018-11-03T18:12:11.921Z,53.70
2018-11-03T18:14:41.261Z,50.60
2018-11-03T18:17:10.463Z,57.40
2018-11-03T18:19:39.806Z,56.90
2018-11-03T18:22:09.172Z,56.97
2018-11-03T18:24:38.363Z,52.07
2018-11-03T18:27:08.454Z,61.40
2018-11-03T18:29:39.319Z,68.47
2018-11-03T18:32:09.779Z,57.50
2018-11-03T18:34:39.195Z,54.87
2018-11-03T18:37:08.680Z,49.43
2018-11-03T18:39:38.240Z,72.70
2018-11-03T18:42:07.349Z,55.03
2018-11-03T18:44:36.680Z,60.20
2018-11-03T18:47:06.534Z,61.93
2018-11-03T18:49:35.962Z,68.67
2018-11-03T18:52:05.279Z,61.47
2018-11-03T18:54:35.258Z,75.50
2018-11-03T18:57:04.602Z,92.90
2018-11-03T18:59:35.634Z,91.10
2018-11-03T19:02:05.487Z,92.77
2018-11-03T19:04:35.212Z,85.00
2018-11-03T19:07:05.121Z,78.50
2018-11-03T19:09:34.331Z,87.93
2018-11-03T19:12:03.598Z,101.07
2018-11-03T19:14:49.568Z,111.97
2018-11-03T19:17:19.084Z,132.33
2018-11-03T19:19:54.742Z,89.63
2018-11-03T19:22:24.380Z,82.60
2018-11-03T19:24:54.016Z,108.43
2018-11-03T19:27:23.183Z,84.93
2018-11-03T19:29:52.530Z,86.13
2018-11-03T19:32:21.995Z,97.03
2018-11-03T19:34:51.477Z,79.73
2018-11-03T19:37:20.975Z,54.17
2018-11-03T19:39:50.204Z,41.87
2018-11-03T19:42:19.294Z,40.37
2018-11-03T19:44:48.730Z,43.87
2018-11-03T19:47:17.877Z,40.93
2018-11-03T19:49:47.162Z,40.63
2018-11-03T19:52:16.519Z,36.03
2018-11-03T19:54:45.916Z,37.53
2018-11-03T19:57:15.545Z,28.93
2018-11-03T19:59:45.953Z,30.40
2018-11-03T20:02:15.222Z,26.53
2018-11-03T20:04:44.440Z,27.37
2018-11-03T20:07:13.928Z,27.03
2018-11-03T20:09:43.141Z,31.03
2018-11-03T20:12:12.366Z,26.07
2018-11-03T20:14:41.778Z,23.13
2018-11-03T20:17:11.090Z,26.67
2018-11-03T20:19:40.286Z,25.50
2018-11-03T20:22:09.567Z,22.70
2018-11-03T20:24:39.094Z,21.50
2018-11-03T20:27:08.412Z,20.50
2018-11-03T20:29:38.034Z,22.73
2018-11-03T20:32:07.328Z,25.83
2018-11-03T20:34:36.397Z,26.47
2018-11-03T20:37:05.799Z,31.30
2018-11-03T20:39:35.097Z,18.77
2018-11-03T20:42:04.412Z,21.20
2018-11-03T20:44:34.021Z,34.60
2018-11-03T20:47:03.215Z,33.83
2018-11-03T20:49:32.403Z,33.53
2018-11-03T20:52:01.802Z,38.30
2018-11-03T20:54:31.189Z,37.60
2018-11-03T20:57:01.360Z,36.67
2018-11-03T20:59:30.477Z,32.40
2018-11-03T21:01:59.729Z,39.93
2018-11-03T21:04:29.454Z,39.33
2018-11-03T21:06:58.713Z,40.47
2018-11-03T21:09:30.268Z,42.83
2018-11-03T21:12:01.830Z,45.10
2018-11-03T21:14:31.161Z,50.37
2018-11-03T21:17:00.374Z,39.27
2018-11-03T21:19:29.470Z,38.87
2018-11-03T21:21:58.883Z,35.57
2018-11-03T21:24:28.140Z,40.87
2018-11-03T21:26:57.564Z,37.50
2018-11-03T21:29:27.049Z,34.10
2018-11-03T21:31:56.362Z,39.70
2018-11-03T21:34:25.677Z,37.30
2018-11-03T21:36:54.919Z,39.03
2018-11-03T21:39:24.046Z,33.60
2018-11-03T21:41:53.148Z,37.27
2018-11-03T21:44:22.419Z,39.13
2018-11-03T21:46:51.919Z,46.23
2018-11-03T21:49:21.257Z,39.50
2018-11-03T21:51:50.511Z,42.70
2018-11-03T21:54:20.394Z,42.77
2018-11-03T21:56:49.675Z,44.50
2018-11-03T21:59:19.194Z,49.23
2018-11-03T22:01:48.494Z,45.10
2018-11-03T22:04:17.792Z,45.93
2018-11-03T22:06:47.914Z,50.17
2018-11-03T22:09:17.095Z,48.17
2018-11-03T22:11:46.296Z,57.70
2018-11-03T22:14:15.587Z,69.33
2018-11-03T22:16:44.890Z,70.60
2018-11-03T22:19:14.288Z,65.83
2018-11-03T22:21:43.742Z,64.53
2018-11-03T22:24:13.083Z,60.80
2018-11-03T22:26:42.213Z,56.77
2018-11-03T22:29:11.569Z,56.47
2018-11-03T22:31:40.901Z,56.70
2018-11-03T22:34:10.189Z,55.23
2018-11-03T22:36:39.736Z,58.43
2018-11-03T22:39:09.395Z,63.77
2018-11-03T22:41:38.729Z,60.87
2018-11-03T22:44:07.959Z,60.60
2018-11-03T22:46:37.294Z,57.23
2018-11-03T22:49:06.525Z,59.07
2018-11-03T22:51:35.798Z,58.27
2018-11-03T22:54:05.431Z,55.30
2018-11-03T22:56:35.107Z,62.93
2018-11-03T22:59:04.334Z,56.60
2018-11-03T23:01:33.656Z,56.00
2018-11-03T23:04:02.979Z,56.40
2018-11-03T23:06:32.301Z,57.40
2018-11-03T23:09:01.505Z,61.77
2018-11-03T23:11:31.049Z,52.00
2018-11-03T23:14:00.346Z,51.87
2018-11-03T23:16:29.638Z,54.90
2018-11-03T23:18:58.946Z,56.07
2018-11-03T23:21:28.239Z,51.00
2018-11-03T23:23:57.420Z,48.83
2018-11-03T23:26:26.911Z,54.00
2018-11-03T23:28:56.135Z,52.90
2018-11-03T23:31:25.375Z,43.83
2018-11-03T23:33:55.070Z,43.20
2018-11-03T23:36:24.343Z,47.20
2018-11-03T23:38:53.442Z,47.20
2018-11-03T23:41:22.873Z,50.47
2018-11-03T23:43:52.054Z,42.60
2018-11-03T23:46:21.367Z,44.70
2018-11-03T23:48:51.106Z,42.67
2018-11-03T23:51:20.473Z,43.37
2018-11-03T23:53:49.774Z,46.90
2018-11-03T23:56:19.015Z,50.47
2018-11-03T23:58:48.249Z,46.70
